Tinton Falls, New Jersey
Current Conditions -  °F | °C
As of 8:35 PM on Tuesday 27 Jan 2015 (Local Time) from KBLM Reporting Station
Few Clouds Few Clouds  
Wind Chill: 11°   Ceiling: Unl
Heat Index: 25°   Visibility: 10mi
Dew Point:   Wind: 20mph
Humidity: 50%   Direction: 310°NW
Pressure: 29.77"   Gusts: 26mph
Location:  40.2492°N, 74.0521°W
Report Text: KBLM 280135Z AUTO 31017G23KT 10SM FEW120 M04/M13 A2977 RMK AO1
Loading
Personal Weather Stations






























Interactive Weather Map New forecast layout! Learn more

10-Day Weather Forecast

Advertisements
Track Severe Weather on mobile